createdAt,value
2019-04-16T00:00:55.472Z,29.42
2019-04-16T00:03:24.809Z,28.73
2019-04-16T00:05:58.634Z,27.62
2019-04-16T00:08:28.415Z,34.73
2019-04-16T00:11:02.383Z,27.93
2019-04-16T00:13:33.341Z,32.78
2019-04-16T00:16:04.305Z,28.20
2019-04-16T00:18:33.671Z,29.23
2019-04-16T00:21:06.406Z,29.65
2019-04-16T00:23:54.557Z,30.90
2019-04-16T00:26:26.812Z,33.08
2019-04-16T00:28:55.167Z,30.68
2019-04-16T00:31:24.674Z,33.53
2019-04-16T00:33:54.064Z,27.77
2019-04-16T00:36:23.426Z,34.50
2019-04-16T00:38:54.671Z,28.85
2019-04-16T00:41:23.985Z,30.40
2019-04-16T00:43:53.273Z,33.48
2019-04-16T00:46:23.014Z,28.90
2019-04-16T00:48:52.313Z,32.17
2019-04-16T00:51:21.707Z,36.00
2019-04-16T00:53:51.059Z,31.45
2019-04-16T00:56:20.588Z,29.63
2019-04-16T00:58:52.146Z,27.77
2019-04-16T01:01:21.060Z,33.15
2019-04-16T01:03:50.457Z,31.30
2019-04-16T01:06:19.714Z,36.68
2019-04-16T01:08:54.842Z,32.93
2019-04-16T01:11:21.077Z,32.17
2019-04-16T01:13:50.383Z,33.70
2019-04-16T01:16:19.794Z,36.55
2019-04-16T01:18:49.189Z,29.32
2019-04-16T01:21:18.553Z,34.48
2019-04-16T01:23:49.326Z,33.50
2019-04-16T01:26:18.940Z,30.82
2019-04-16T01:29:08.267Z,32.48
2019-04-16T01:31:45.203Z,29.95
2019-04-16T01:34:28.479Z,29.87
2019-04-16T01:36:59.925Z,33.67
2019-04-16T01:39:30.949Z,30.90
2019-04-16T01:42:00.473Z,31.05
2019-04-16T01:44:30.786Z,31.48
2019-04-16T01:47:03.772Z,33.85
2019-04-16T01:49:31.432Z,30.57
2019-04-16T01:52:00.819Z,32.73
2019-04-16T01:54:30.188Z,34.25
2019-04-16T01:57:00.761Z,32.42
2019-04-16T01:59:35.620Z,30.62
2019-04-16T02:02:02.533Z,32.93
2019-04-16T02:04:33.003Z,31.52
2019-04-16T02:07:02.443Z,33.38
2019-04-16T02:09:34.597Z,31.97
2019-04-16T02:12:02.862Z,34.00
2019-04-16T02:14:32.134Z,33.50
2019-04-16T02:17:01.438Z,39.38
2019-04-16T02:19:32.879Z,32.30
2019-04-16T02:22:01.994Z,33.48
2019-04-16T02:24:31.514Z,35.73
2019-04-16T02:27:01.013Z,35.83
2019-04-16T02:29:30.689Z,32.25
2019-04-16T02:32:00.085Z,33.08
2019-04-16T02:34:29.357Z,32.23
2019-04-16T02:37:02.470Z,34.40
2019-04-16T02:39:47.189Z,33.73
2019-04-16T02:42:00.948Z,35.58
2019-04-16T02:44:30.202Z,37.10
2019-04-16T02:47:05.461Z,41.70
2019-04-16T02:49:30.575Z,32.70
2019-04-16T02:52:04.345Z,37.85
2019-04-16T02:54:47.815Z,45.63
2019-04-16T02:57:31.284Z,36.08
2019-04-16T03:00:03.797Z,35.15
2019-04-16T03:02:45.361Z,39.03
2019-04-16T03:05:16.483Z,34.75
2019-04-16T03:07:45.956Z,34.83
2019-04-16T03:10:15.268Z,34.45
2019-04-16T03:12:45.634Z,33.13
2019-04-16T03:15:16.672Z,35.15
2019-04-16T03:17:46.489Z,38.10
2019-04-16T03:20:20.919Z,36.03
2019-04-16T03:22:51.166Z,34.15
2019-04-16T03:25:20.466Z,34.30
2019-04-16T03:27:51.448Z,36.98
2019-04-16T03:30:20.835Z,36.60
2019-04-16T03:32:50.828Z,36.10
2019-04-16T03:35:25.365Z,36.03
2019-04-16T03:37:51.301Z,37.63
2019-04-16T03:40:24.782Z,35.73
2019-04-16T03:42:51.701Z,36.10
2019-04-16T03:45:21.038Z,36.40
2019-04-16T03:47:51.373Z,36.98
2019-04-16T03:50:21.352Z,36.85
2019-04-16T03:52:50.633Z,35.55
2019-04-16T03:55:25.388Z,38.20
2019-04-16T03:57:50.946Z,36.83
2019-04-16T04:00:20.313Z,37.75
2019-04-16T04:02:54.212Z,40.00
2019-04-16T04:05:20.671Z,35.40
2019-04-16T04:07:50.038Z,32.67
2019-04-16T04:10:30.560Z,36.38
2019-04-16T04:12:50.498Z,37.35
2019-04-16T04:15:19.886Z,37.80
2019-04-16T04:17:49.545Z,35.08
2019-04-16T04:20:19.371Z,36.48
2019-04-16T04:22:51.237Z,33.70
2019-04-16T04:25:20.797Z,36.40
2019-04-16T04:27:50.102Z,37.73
2019-04-16T04:30:21.361Z,36.70
2019-04-16T04:32:50.850Z,38.02
2019-04-16T04:35:22.127Z,34.83
2019-04-16T04:37:51.240Z,39.10
2019-04-16T04:40:20.538Z,36.88
2019-04-16T04:42:49.845Z,39.73
2019-04-16T04:45:19.119Z,34.92
2019-04-16T04:47:51.700Z,36.05
2019-04-16T04:50:19.712Z,38.65
2019-04-16T04:52:49.092Z,36.45
2019-04-16T04:55:18.612Z,35.40
2019-04-16T04:57:47.933Z,35.68
2019-04-16T05:00:17.254Z,37.95
2019-04-16T05:02:46.549Z,37.50
2019-04-16T05:05:18.341Z,34.27
2019-04-16T05:07:47.635Z,36.37
2019-04-16T05:10:16.910Z,34.80
2019-04-16T05:12:46.200Z,33.40
2019-04-16T05:15:15.807Z,36.68
2019-04-16T05:17:46.641Z,35.52
2019-04-16T05:20:17.560Z,36.73
2019-04-16T05:22:46.923Z,33.58
2019-04-16T05:25:16.231Z,35.55
2019-04-16T05:27:45.518Z,35.03
2019-04-16T05:30:19.937Z,33.08
2019-04-16T05:32:46.157Z,34.15
2019-04-16T05:35:15.456Z,33.05
2019-04-16T05:37:44.795Z,33.28
2019-04-16T05:40:14.231Z,31.73
2019-04-16T05:42:43.501Z,31.57
2019-04-16T05:45:12.976Z,31.40
2019-04-16T05:47:42.242Z,33.15
2019-04-16T05:50:11.752Z,32.90
2019-04-16T05:52:41.149Z,32.65
2019-04-16T05:55:29.434Z,32.20
2019-04-16T05:57:59.196Z,31.50
2019-04-16T06:00:41.683Z,30.88
2019-04-16T06:03:10.049Z,32.75
2019-04-16T06:05:39.488Z,32.90
2019-04-16T06:08:10.309Z,32.05
2019-04-16T06:10:40.147Z,29.20
2019-04-16T06:13:17.082Z,33.20
2019-04-16T06:15:50.257Z,32.08
2019-04-16T06:21:06.705Z,30.88
2019-04-16T06:23:54.127Z,31.20
2019-04-16T06:26:27.545Z,35.38
2019-04-16T06:29:01.603Z,30.65
2019-04-16T06:31:41.690Z,33.48
2019-04-16T06:34:28.741Z,34.50
2019-04-16T06:37:00.717Z,39.60
2019-04-16T06:39:31.704Z,34.33
2019-04-16T06:42:05.532Z,35.80
2019-04-16T06:44:36.454Z,34.48
2019-04-16T06:47:16.118Z,34.53
2019-04-16T06:49:51.044Z,39.38
2019-04-16T06:52:28.107Z,33.85
2019-04-16T06:55:03.550Z,33.25
2019-04-16T06:57:40.384Z,34.63
2019-04-16T07:00:11.138Z,37.30
2019-04-16T07:03:02.122Z,33.73
2019-04-16T07:05:33.233Z,32.20
2019-04-16T07:08:17.887Z,34.85
2019-04-16T07:11:00.835Z,32.45
2019-04-16T07:13:30.157Z,33.08
2019-04-16T07:15:59.465Z,37.98
2019-04-16T07:18:28.750Z,33.35
2019-04-16T07:20:58.057Z,33.90
2019-04-16T07:23:27.470Z,34.38
2019-04-16T07:25:56.935Z,31.60
2019-04-16T07:28:27.902Z,32.17
2019-04-16T07:31:14.868Z,33.18
2019-04-16T07:33:59.106Z,31.02
2019-04-16T07:36:39.320Z,33.33
2019-04-16T07:39:29.898Z,32.93
2019-04-16T07:42:09.803Z,34.00
2019-04-16T07:44:40.551Z,34.70
2019-04-16T07:47:11.518Z,32.45
2019-04-16T07:49:45.165Z,33.45
2019-04-16T07:52:22.520Z,32.83
2019-04-16T07:55:02.443Z,31.60
2019-04-16T07:57:31.771Z,31.27
2019-04-16T08:00:01.130Z,29.82
2019-04-16T08:02:30.845Z,33.95
2019-04-16T08:05:01.304Z,30.32
2019-04-16T08:07:30.746Z,27.58
2019-04-16T08:10:02.790Z,30.60
2019-04-16T08:12:32.185Z,31.77
2019-04-16T08:15:13.366Z,33.98
2019-04-16T08:17:33.035Z,34.60
2019-04-16T08:20:02.638Z,29.45
2019-04-16T08:22:32.348Z,34.27
2019-04-16T08:25:04.181Z,30.55
2019-04-16T08:27:33.572Z,34.90
2019-04-16T08:30:04.939Z,29.82
2019-04-16T08:32:34.324Z,30.50
2019-04-16T08:35:04.108Z,31.75
2019-04-16T08:37:33.540Z,30.02
2019-04-16T08:40:02.820Z,34.75
2019-04-16T08:42:43.852Z,31.87
2019-04-16T08:45:07.366Z,28.95
2019-04-16T08:47:35.360Z,31.12
2019-04-16T08:50:05.166Z,32.50
2019-04-16T08:52:34.494Z,33.42
2019-04-16T08:55:04.026Z,31.15
2019-04-16T08:57:34.456Z,31.65
2019-04-16T09:00:11.323Z,29.25
2019-04-16T09:02:39.707Z,30.25
2019-04-16T09:05:11.695Z,32.78
2019-04-16T09:07:41.432Z,37.25
2019-04-16T09:10:19.033Z,33.90
2019-04-16T09:13:01.698Z,33.58
2019-04-16T09:15:27.093Z,30.95
2019-04-16T09:17:57.809Z,34.48
2019-04-16T09:20:28.742Z,35.87
2019-04-16T09:22:59.157Z,29.15
2019-04-16T09:25:36.237Z,28.73
2019-04-16T09:28:24.885Z,28.87
2019-04-16T09:30:59.182Z,29.85
2019-04-16T09:33:30.477Z,29.90
2019-04-16T09:36:21.067Z,29.12
2019-04-16T09:38:52.039Z,29.82
2019-04-16T09:41:22.978Z,31.12
2019-04-16T09:43:58.035Z,29.32
2019-04-16T09:46:49.785Z,28.15
2019-04-16T09:48:59.575Z,28.45
2019-04-16T09:51:29.008Z,30.77
2019-04-16T09:53:58.371Z,30.72
2019-04-16T09:56:29.484Z,30.50
2019-04-16T09:59:02.300Z,29.42
2019-04-16T10:04:15.208Z,27.82
2019-04-16T10:06:44.502Z,28.47
2019-04-16T10:09:13.831Z,29.23
2019-04-16T10:11:43.185Z,26.80
2019-04-16T10:14:12.490Z,29.80
2019-04-16T10:16:42.014Z,31.97
2019-04-16T10:19:11.292Z,26.68
2019-04-16T10:21:40.688Z,26.12
2019-04-16T10:24:15.646Z,30.17
2019-04-16T10:26:46.755Z,24.18
2019-04-16T10:29:17.687Z,25.92
2019-04-16T10:31:47.204Z,28.47
2019-04-16T10:34:16.575Z,32.93
2019-04-16T10:36:45.926Z,25.45
2019-04-16T10:39:19.674Z,30.62
2019-04-16T10:41:56.287Z,29.90
2019-04-16T10:44:44.380Z,26.70
2019-04-16T10:47:16.739Z,29.70
2019-04-16T10:49:53.646Z,29.35
2019-04-16T10:52:27.432Z,28.90
2019-04-16T10:54:58.704Z,33.10
2019-04-16T10:57:32.450Z,33.83
2019-04-16T11:00:03.431Z,31.40
2019-04-16T11:02:36.050Z,32.93
2019-04-16T11:05:15.226Z,25.52
2019-04-16T11:07:52.810Z,32.70
2019-04-16T11:10:22.078Z,33.13
2019-04-16T11:12:51.532Z,34.18
2019-04-16T11:15:22.519Z,31.20
2019-04-16T11:17:51.975Z,29.65
2019-04-16T11:20:21.404Z,38.28
2019-04-16T11:22:50.993Z,40.63
2019-04-16T11:25:20.370Z,30.85
2019-04-16T11:27:49.942Z,35.43
2019-04-16T11:30:32.927Z,34.50
2019-04-16T11:33:02.239Z,29.50
2019-04-16T11:35:31.706Z,34.23
2019-04-16T11:38:01.015Z,35.05
2019-04-16T11:40:30.308Z,29.40
2019-04-16T11:42:59.718Z,32.40
2019-04-16T11:45:29.227Z,31.30
2019-04-16T11:47:58.580Z,30.65
2019-04-16T11:50:29.005Z,32.85
2019-04-16T11:52:58.826Z,30.52
2019-04-16T11:55:28.122Z,29.23
2019-04-16T11:57:57.450Z,29.37
2019-04-16T12:00:28.593Z,33.50
2019-04-16T12:03:11.276Z,30.35
2019-04-16T12:05:42.190Z,30.48
2019-04-16T12:08:18.947Z,30.27
2019-04-16T12:10:58.670Z,29.87
2019-04-16T12:13:32.268Z,35.85
2019-04-16T12:16:06.219Z,31.75
2019-04-16T12:18:37.373Z,32.80
2019-04-16T12:21:11.350Z,36.33
2019-04-16T12:23:58.889Z,33.70
2019-04-16T12:26:29.872Z,32.13
2019-04-16T12:29:07.029Z,35.58
2019-04-16T12:31:40.857Z,32.20
2019-04-16T12:34:14.267Z,33.98
2019-04-16T12:37:01.826Z,35.88
2019-04-16T12:39:36.236Z,33.70
2019-04-16T12:42:23.652Z,38.30
2019-04-16T12:45:10.087Z,32.53
2019-04-16T12:47:41.070Z,35.33
2019-04-16T12:50:16.756Z,30.90
2019-04-16T12:53:04.436Z,30.32
2019-04-16T12:55:41.117Z,32.67
2019-04-16T12:58:12.026Z,36.77
2019-04-16T13:00:59.738Z,36.00
2019-04-16T13:03:33.328Z,33.30
2019-04-16T13:06:16.106Z,33.90
2019-04-16T13:08:47.465Z,36.63
2019-04-16T13:11:18.946Z,33.78
2019-04-16T13:13:52.901Z,43.85
2019-04-16T13:16:26.657Z,37.65
2019-04-16T13:19:06.869Z,35.05
2019-04-16T13:21:50.687Z,35.28
2019-04-16T13:24:27.805Z,34.50
2019-04-16T13:26:58.940Z,35.23
2019-04-16T13:29:30.569Z,34.63
2019-04-16T13:32:00.079Z,36.20
2019-04-16T13:34:30.914Z,32.67
2019-04-16T13:37:00.975Z,34.43
2019-04-16T13:39:32.287Z,35.13
2019-04-16T13:42:01.925Z,38.23
2019-04-16T13:44:37.642Z,41.35
2019-04-16T13:47:07.019Z,38.15
2019-04-16T13:49:37.994Z,34.35
2019-04-16T13:52:07.320Z,32.13
2019-04-16T13:54:38.313Z,32.80
2019-04-16T13:57:12.293Z,34.18
2019-04-16T14:00:03.198Z,30.80
2019-04-16T14:02:51.052Z,36.55
2019-04-16T14:05:21.953Z,35.68
2019-04-16T14:07:51.275Z,31.50
2019-04-16T14:10:20.636Z,30.70
2019-04-16T14:12:50.393Z,33.40
2019-04-16T14:15:31.732Z,33.88
2019-04-16T14:17:53.388Z,36.93
2019-04-16T14:20:23.046Z,33.33
2019-04-16T14:22:53.669Z,37.05
2019-04-16T14:25:23.754Z,44.30
2019-04-16T14:27:55.364Z,36.10
2019-04-16T14:30:27.466Z,32.25
2019-04-16T14:32:56.837Z,33.58
2019-04-16T14:35:33.436Z,42.90
2019-04-16T14:38:00.532Z,43.92
2019-04-16T14:40:29.896Z,45.65
2019-04-16T14:42:59.341Z,50.75
2019-04-16T14:45:34.769Z,44.45
2019-04-16T14:48:04.955Z,53.42
2019-04-16T14:50:33.403Z,44.90
2019-04-16T14:53:02.972Z,47.38
2019-04-16T14:55:37.017Z,42.43
2019-04-16T14:58:24.169Z,62.25
2019-04-16T15:00:55.160Z,58.50
2019-04-16T15:03:43.438Z,39.88
2019-04-16T15:06:31.183Z,40.90
2019-04-16T15:09:02.136Z,37.90
2019-04-16T15:14:13.733Z,37.80
2019-04-16T15:16:51.938Z,40.98
2019-04-16T15:19:25.760Z,41.42
2019-04-16T15:21:58.608Z,36.60
2019-04-16T15:24:32.439Z,37.77
2019-04-16T15:27:18.771Z,40.28
2019-04-16T15:29:56.465Z,39.90
2019-04-16T15:32:28.478Z,43.78
2019-04-16T15:34:58.629Z,41.83
2019-04-16T15:37:29.578Z,39.50
2019-04-16T15:40:00.827Z,43.35
2019-04-16T15:42:48.126Z,36.28
2019-04-16T15:45:32.781Z,29.27
2019-04-16T15:48:14.874Z,30.35
2019-04-16T15:50:45.664Z,29.70
2019-04-16T15:53:16.740Z,29.12
2019-04-16T15:55:53.488Z,29.40
2019-04-16T15:58:32.504Z,29.87
2019-04-16T16:01:03.418Z,30.23
2019-04-16T16:03:37.115Z,30.12
2019-04-16T16:06:08.277Z,35.20
2019-04-16T16:08:45.214Z,28.73
2019-04-16T16:11:17.293Z,29.37
2019-04-16T16:13:47.761Z,28.70
2019-04-16T16:16:18.022Z,31.27
2019-04-16T16:18:48.420Z,28.92
2019-04-16T16:21:17.713Z,33.83
2019-04-16T16:23:47.338Z,28.07
2019-04-16T16:26:16.936Z,30.48
2019-04-16T16:28:46.333Z,32.50
2019-04-16T16:31:17.223Z,31.52
2019-04-16T16:33:46.723Z,28.70
2019-04-16T16:36:16.231Z,29.65
2019-04-16T16:38:48.245Z,32.70
2019-04-16T16:41:16.688Z,34.25
2019-04-16T16:43:45.984Z,35.30
2019-04-16T16:46:20.192Z,38.23
2019-04-16T16:48:51.754Z,33.53
2019-04-16T16:51:22.992Z,34.85
2019-04-16T16:54:09.841Z,38.73
2019-04-16T16:56:56.047Z,36.33
2019-04-16T16:59:32.913Z,39.95
2019-04-16T17:02:21.991Z,43.35
2019-04-16T17:04:52.944Z,44.60
2019-04-16T17:07:22.306Z,42.13
2019-04-16T17:09:51.702Z,48.73
2019-04-16T17:12:20.978Z,46.77
2019-04-16T17:14:50.286Z,51.92
2019-04-16T17:17:19.585Z,60.58
2019-04-16T17:19:50.824Z,51.15
2019-04-16T17:22:21.396Z,46.50
2019-04-16T17:24:50.784Z,49.23
2019-04-16T17:27:21.034Z,47.70
2019-04-16T17:29:50.922Z,47.50
2019-04-16T17:32:22.004Z,45.43
2019-04-16T17:34:51.454Z,47.08
2019-04-16T17:37:27.423Z,49.65
2019-04-16T17:39:57.509Z,41.60
2019-04-16T17:42:28.747Z,43.83
2019-04-16T17:45:16.158Z,44.93
2019-04-16T17:48:02.292Z,32.28
2019-04-16T17:50:40.253Z,24.90
2019-04-16T18:00:37.670Z,28.77
2019-04-16T18:03:14.870Z,22.73
2019-04-16T18:05:48.745Z,27.85
2019-04-16T18:08:22.751Z,23.57
2019-04-16T18:10:54.015Z,26.62
2019-04-16T18:13:24.974Z,24.52
2019-04-16T18:15:56.116Z,26.05
2019-04-16T18:18:30.152Z,27.15
2019-04-16T18:21:13.452Z,28.38
2019-04-16T18:24:00.833Z,23.83
2019-04-16T18:26:47.724Z,26.62
2019-04-16T18:29:18.902Z,23.60
2019-04-16T18:31:57.386Z,24.05
2019-04-16T18:34:43.476Z,25.37
2019-04-16T18:37:28.376Z,25.27
2019-04-16T18:40:05.028Z,25.37
2019-04-16T18:42:35.069Z,25.02
2019-04-16T18:45:06.099Z,23.50
2019-04-16T18:47:37.140Z,22.62
2019-04-16T18:50:08.804Z,24.40
2019-04-16T18:52:38.191Z,21.05
2019-04-16T18:55:08.126Z,34.20
2019-04-16T18:57:38.354Z,20.65
2019-04-16T19:00:10.368Z,20.40
2019-04-16T19:02:42.075Z,20.05
2019-04-16T19:05:12.279Z,22.70
2019-04-16T19:07:41.818Z,17.77
2019-04-16T19:10:11.141Z,18.62
2019-04-16T19:12:40.554Z,17.32
2019-04-16T19:15:09.907Z,16.95
2019-04-16T19:17:39.227Z,17.98
2019-04-16T19:20:08.631Z,17.77
2019-04-16T19:22:38.091Z,16.20
2019-04-16T19:25:08.994Z,20.68
2019-04-16T19:27:40.240Z,16.67
2019-04-16T19:30:10.657Z,19.27
2019-04-16T19:32:39.981Z,17.42
2019-04-16T19:35:11.448Z,17.77
2019-04-16T19:37:40.498Z,17.48
2019-04-16T19:40:16.064Z,17.15
2019-04-16T19:42:44.240Z,16.23
2019-04-16T19:45:13.746Z,16.85
2019-04-16T19:47:44.951Z,14.87
2019-04-16T19:50:14.420Z,15.35
2019-04-16T19:52:45.726Z,18.73
2019-04-16T19:55:18.098Z,14.10
2019-04-16T19:57:48.982Z,17.02
2019-04-16T20:00:22.874Z,16.75
2019-04-16T20:02:49.949Z,17.27
2019-04-16T20:05:19.399Z,17.05
2019-04-16T20:07:49.135Z,17.45
2019-04-16T20:10:20.116Z,15.48
2019-04-16T20:12:49.507Z,19.67
2019-04-16T20:15:18.786Z,24.85
2019-04-16T20:17:48.294Z,16.27
2019-04-16T20:20:17.679Z,16.35
2019-04-16T20:22:49.985Z,21.20
2019-04-16T20:25:19.449Z,21.62
2019-04-16T20:27:50.328Z,17.85
2019-04-16T20:30:23.065Z,20.25
2019-04-16T20:32:50.753Z,17.37
2019-04-16T20:35:20.067Z,19.05
2019-04-16T20:37:53.375Z,14.25
2019-04-16T20:40:22.661Z,17.12
2019-04-16T20:42:52.003Z,14.00
2019-04-16T20:45:21.454Z,15.70
2019-04-16T20:47:50.775Z,14.43
2019-04-16T20:50:20.851Z,17.70
2019-04-16T20:52:52.021Z,16.47
2019-04-16T20:55:21.389Z,16.48
2019-04-16T20:57:55.320Z,15.10
2019-04-16T21:00:26.026Z,14.98
2019-04-16T21:02:55.416Z,18.25
2019-04-16T21:05:24.719Z,15.38
2019-04-16T21:07:54.249Z,16.67
2019-04-16T21:10:23.518Z,15.85
2019-04-16T21:12:54.871Z,15.50
2019-04-16T21:15:27.456Z,15.88
2019-04-16T21:17:54.965Z,15.72
2019-04-16T21:20:24.537Z,17.25
2019-04-16T21:22:57.615Z,16.07
2019-04-16T21:25:25.126Z,15.48
2019-04-16T21:27:56.193Z,15.63
2019-04-16T21:30:25.559Z,16.80
2019-04-16T21:32:59.583Z,16.00
2019-04-16T21:35:45.741Z,17.02
2019-04-16T21:38:19.438Z,14.38
2019-04-16T21:40:48.739Z,14.45
2019-04-16T21:43:18.150Z,14.85
2019-04-16T21:45:51.746Z,16.73
2019-04-16T21:48:23.795Z,14.28
2019-04-16T21:50:54.167Z,17.25
2019-04-16T21:53:24.545Z,13.35
2019-04-16T21:55:55.405Z,12.95
2019-04-16T21:58:25.123Z,12.50
2019-04-16T22:00:59.761Z,15.25
2019-04-16T22:03:31.579Z,12.15
2019-04-16T22:06:02.536Z,12.55
2019-04-16T22:08:31.943Z,14.03
2019-04-16T22:11:01.305Z,11.60
2019-04-16T22:13:30.831Z,13.25
2019-04-16T22:16:00.167Z,14.53
2019-04-16T22:18:29.669Z,15.30
2019-04-16T22:20:59.016Z,14.73
2019-04-16T22:23:28.419Z,13.75
2019-04-16T22:26:01.347Z,11.73
2019-04-16T22:28:29.441Z,12.50
2019-04-16T22:30:58.799Z,14.50
2019-04-16T22:33:28.242Z,11.38
2019-04-16T22:35:57.528Z,14.20
2019-04-16T22:38:28.516Z,11.70
2019-04-16T22:40:59.479Z,12.30
2019-04-16T22:43:46.920Z,13.30
2019-04-16T22:46:27.059Z,12.28
2019-04-16T22:48:57.653Z,16.93
2019-04-16T22:51:26.977Z,15.13
2019-04-16T22:53:56.586Z,15.50
2019-04-16T22:56:28.391Z,15.18
2019-04-16T22:58:58.478Z,14.13
2019-04-16T23:01:29.410Z,13.78
2019-04-16T23:03:58.956Z,13.18
2019-04-16T23:06:28.329Z,13.13
2019-04-16T23:08:57.741Z,13.00
2019-04-16T23:11:27.186Z,13.25
2019-04-16T23:13:57.038Z,13.98
2019-04-16T23:16:26.456Z,15.08
2019-04-16T23:18:56.126Z,16.42
2019-04-16T23:21:25.469Z,13.88
2019-04-16T23:23:54.740Z,12.98
2019-04-16T23:26:24.124Z,17.80
2019-04-16T23:28:53.599Z,18.77
2019-04-16T23:31:23.728Z,18.42
2019-04-16T23:33:53.168Z,16.32
2019-04-16T23:36:22.615Z,15.60
2019-04-16T23:38:51.899Z,16.05
2019-04-16T23:41:21.235Z,16.57
2019-04-16T23:43:54.949Z,18.32
2019-04-16T23:46:34.664Z,16.80
2019-04-16T23:49:16.527Z,19.25
2019-04-16T23:51:49.436Z,19.10
2019-04-16T23:54:20.511Z,17.82
2019-04-16T23:56:57.380Z,19.20
2019-04-16T23:59:32.607Z,22.50
